createdAt,value
2023-02-22T00:00:01.081Z,31.70
2023-02-22T00:02:32.591Z,31.00
2023-02-22T00:05:02.227Z,30.47
2023-02-22T00:07:35.870Z,31.57
2023-02-22T00:10:09.169Z,30.40
2023-02-22T00:12:38.899Z,32.27
2023-02-22T00:15:09.156Z,31.00
2023-02-22T00:17:39.137Z,32.33
2023-02-22T00:20:10.097Z,31.60
2023-02-22T00:22:42.687Z,29.10
2023-02-22T00:25:12.989Z,29.53
2023-02-22T00:27:43.187Z,27.30
2023-02-22T00:30:19.185Z,27.13
2023-02-22T00:32:50.581Z,27.30
2023-02-22T00:35:23.573Z,24.60
2023-02-22T00:38:00.410Z,23.63
2023-02-22T00:40:32.981Z,22.70
2023-02-22T00:43:04.161Z,24.57
2023-02-22T00:45:35.863Z,23.20
2023-02-22T00:48:07.242Z,25.70
2023-02-22T00:50:37.316Z,23.83
2023-02-22T00:53:10.446Z,22.80
2023-02-22T00:55:41.233Z,21.13
2023-02-22T00:58:11.364Z,20.93
2023-02-22T01:00:43.014Z,20.13
2023-02-22T01:03:15.166Z,18.57
2023-02-22T01:05:45.622Z,18.70
2023-02-22T01:08:19.404Z,20.43
2023-02-22T01:10:49.633Z,19.60
2023-02-22T01:13:20.073Z,19.07
2023-02-22T01:15:50.044Z,16.53
2023-02-22T01:18:21.991Z,13.23
2023-02-22T01:20:51.656Z,11.30
2023-02-22T01:23:24.025Z,11.63
2023-02-22T01:25:54.198Z,10.83
2023-02-22T01:28:24.857Z,9.50
2023-02-22T01:30:56.782Z,8.77
2023-02-22T01:33:27.436Z,8.70
2023-02-22T01:35:57.067Z,7.10
2023-02-22T01:38:29.513Z,7.40
2023-02-22T01:40:59.273Z,7.97
2023-02-22T01:43:33.414Z,7.50
2023-02-22T01:46:05.346Z,9.13
2023-02-22T01:48:41.088Z,10.23
2023-02-22T01:51:15.593Z,12.20
2023-02-22T01:53:53.630Z,14.00
2023-02-22T01:56:24.736Z,13.60
2023-02-22T01:58:58.484Z,14.50
2023-02-22T02:01:29.558Z,15.57
2023-02-22T02:04:00.876Z,15.33
2023-02-22T02:06:34.246Z,15.03
2023-02-22T02:09:12.832Z,14.07
2023-02-22T02:11:44.392Z,13.80
2023-02-22T02:14:16.291Z,11.60
2023-02-22T02:16:53.350Z,11.47
2023-02-22T02:19:35.091Z,11.83
2023-02-22T02:22:22.366Z,11.67
2023-02-22T02:25:29.450Z,10.90
2023-02-22T02:28:29.960Z,12.30
2023-02-22T02:31:25.903Z,11.17
2023-02-22T02:34:05.526Z,9.30
2023-02-22T02:36:40.610Z,10.50
2023-02-22T02:39:20.307Z,9.87
2023-02-22T02:41:53.287Z,9.57
2023-02-22T02:44:31.665Z,9.53
2023-02-22T02:47:08.149Z,9.60
2023-02-22T02:49:46.838Z,9.30
2023-02-22T02:52:20.862Z,9.00
2023-02-22T02:54:52.079Z,9.97
2023-02-22T02:57:22.025Z,8.80
2023-02-22T02:59:51.759Z,8.87
2023-02-22T03:02:43.888Z,10.00
2023-02-22T03:05:32.993Z,8.80
2023-02-22T03:08:10.913Z,8.90
2023-02-22T03:10:51.215Z,9.40
2023-02-22T03:13:33.525Z,9.83
2023-02-22T03:16:14.228Z,9.40
2023-02-22T03:18:54.541Z,8.63
2023-02-22T03:21:36.584Z,7.53
2023-02-22T03:24:12.699Z,8.23
2023-02-22T03:26:45.315Z,7.67
2023-02-22T03:29:20.258Z,7.17
2023-02-22T03:31:56.056Z,6.77
2023-02-22T03:34:32.404Z,7.47
2023-02-22T03:37:13.974Z,7.87
2023-02-22T03:39:47.307Z,8.70
2023-02-22T03:42:22.501Z,9.13
2023-02-22T03:44:54.462Z,9.40
2023-02-22T03:47:31.408Z,9.40
2023-02-22T03:50:07.041Z,10.47
2023-02-22T03:52:41.592Z,10.60
2023-02-22T03:55:17.833Z,11.43
2023-02-22T03:57:51.906Z,12.40
2023-02-22T04:00:24.696Z,12.77
2023-02-22T04:02:54.728Z,14.30
2023-02-22T04:05:25.989Z,15.07
2023-02-22T04:08:00.133Z,14.43
2023-02-22T04:10:30.716Z,14.10
2023-02-22T04:13:00.860Z,14.77
2023-02-22T04:15:30.615Z,14.07
2023-02-22T04:18:06.925Z,13.83
2023-02-22T04:20:36.603Z,13.57
2023-02-22T04:23:17.215Z,13.60
2023-02-22T04:25:47.066Z,13.03
2023-02-22T04:28:19.366Z,14.30
2023-02-22T04:31:12.136Z,13.80
2023-02-22T04:33:42.156Z,12.80
2023-02-22T04:36:16.084Z,15.40
2023-02-22T04:38:49.248Z,15.77
2023-02-22T04:41:20.869Z,15.37
2023-02-22T04:43:50.543Z,17.23
2023-02-22T04:46:24.020Z,18.43
2023-02-22T04:48:55.170Z,16.80
2023-02-22T04:51:28.054Z,19.67
2023-02-22T04:54:08.686Z,19.37
2023-02-22T04:56:40.649Z,17.67
2023-02-22T04:59:10.294Z,18.37
2023-02-22T05:01:41.451Z,16.07
2023-02-22T05:04:11.108Z,18.50
2023-02-22T05:06:40.775Z,20.77
2023-02-22T05:09:13.110Z,19.10
2023-02-22T05:11:42.848Z,19.30
2023-02-22T05:14:12.809Z,18.43
2023-02-22T05:16:42.531Z,19.60
2023-02-22T05:19:12.134Z,18.60
2023-02-22T05:21:42.099Z,20.10
2023-02-22T05:24:14.426Z,20.20
2023-02-22T05:26:46.104Z,19.90
2023-02-22T05:29:16.172Z,20.00
2023-02-22T05:31:45.894Z,17.93
2023-02-22T05:34:15.639Z,17.17
2023-02-22T05:36:46.593Z,17.80
2023-02-22T05:39:19.036Z,17.30
2023-02-22T05:41:48.732Z,18.00
2023-02-22T05:44:18.476Z,15.93
2023-02-22T05:46:48.177Z,16.80
2023-02-22T05:49:18.514Z,15.93
2023-02-22T05:51:48.095Z,15.53
2023-02-22T05:54:20.419Z,16.40
2023-02-22T05:56:50.571Z,15.40
2023-02-22T05:59:20.903Z,15.30
2023-02-22T06:01:50.533Z,15.10
2023-02-22T06:04:20.338Z,14.10
2023-02-22T06:06:50.000Z,15.33
2023-02-22T06:09:22.370Z,14.00
2023-02-22T06:11:54.381Z,13.37
2023-02-22T06:14:24.423Z,14.60
2023-02-22T06:16:56.947Z,13.40
2023-02-22T06:19:27.118Z,14.20
2023-02-22T06:22:00.027Z,13.83
2023-02-22T06:24:32.287Z,14.83
2023-02-22T06:27:04.709Z,14.13
2023-02-22T06:29:34.368Z,13.70
2023-02-22T06:32:04.105Z,13.00
2023-02-22T06:34:33.859Z,14.10
2023-02-22T06:37:03.462Z,14.10
2023-02-22T06:39:35.703Z,11.70
2023-02-22T06:42:05.412Z,11.07
2023-02-22T06:44:35.490Z,9.50
2023-02-22T06:47:05.262Z,10.40
2023-02-22T06:49:34.889Z,10.67
2023-02-22T06:52:06.746Z,13.77
2023-02-22T06:54:40.004Z,12.20
2023-02-22T06:57:10.310Z,14.20
2023-02-22T06:59:39.955Z,14.53
2023-02-22T07:02:09.794Z,12.30
2023-02-22T07:04:41.041Z,13.47
2023-02-22T07:07:12.658Z,14.63
2023-02-22T07:09:45.646Z,13.20
2023-02-22T07:12:15.360Z,14.67
2023-02-22T07:14:45.684Z,13.97
2023-02-22T07:17:15.387Z,14.10
2023-02-22T07:19:45.003Z,13.60
2023-02-22T07:22:15.199Z,13.93
2023-02-22T07:24:47.975Z,15.10
2023-02-22T07:27:17.823Z,17.73
2023-02-22T07:29:47.563Z,17.87
2023-02-22T07:32:17.529Z,16.13
2023-02-22T07:34:48.688Z,17.03
2023-02-22T07:37:21.722Z,15.93
2023-02-22T07:39:57.392Z,16.00
2023-02-22T07:42:28.549Z,17.30
2023-02-22T07:45:00.543Z,17.00
2023-02-22T07:47:30.425Z,17.60
2023-02-22T07:50:00.273Z,17.20
2023-02-22T07:52:29.867Z,18.37
2023-02-22T07:55:02.159Z,17.80
2023-02-22T07:57:31.821Z,22.60
2023-02-22T08:00:01.746Z,23.87
2023-02-22T08:02:34.413Z,21.07
2023-02-22T08:05:04.098Z,21.93
2023-02-22T08:07:33.743Z,21.20
2023-02-22T08:10:10.312Z,21.30
2023-02-22T08:13:24.823Z,22.37
2023-02-22T11:29:37.081Z,24.43
2023-02-22T11:32:21.508Z,24.03
2023-02-22T11:35:03.426Z,22.70
2023-02-22T11:37:39.260Z,23.50
2023-02-22T11:40:18.479Z,23.57
2023-02-22T11:42:49.039Z,22.87
2023-02-22T11:45:25.096Z,21.60
2023-02-22T11:47:57.358Z,20.53
2023-02-22T11:50:31.792Z,21.63
2023-02-22T11:53:17.236Z,21.17
2023-02-22T11:55:54.750Z,20.27
2023-02-22T11:58:35.316Z,21.10
2023-02-22T12:01:17.526Z,21.40
2023-02-22T12:04:18.908Z,20.80
2023-02-22T12:06:58.464Z,20.73
2023-02-22T12:09:37.832Z,20.83
2023-02-22T12:12:19.026Z,21.20
2023-02-22T12:15:03.104Z,20.33
2023-02-22T12:18:00.066Z,18.70
2023-02-22T12:20:42.632Z,19.97
2023-02-22T12:23:26.149Z,18.07
2023-02-22T12:26:01.767Z,19.23
2023-02-22T12:28:38.702Z,19.47
2023-02-22T12:31:20.973Z,17.83
2023-02-22T12:34:02.822Z,18.80
2023-02-22T12:36:39.285Z,16.13
2023-02-22T12:39:27.463Z,16.13
2023-02-22T12:41:58.768Z,15.83
2023-02-22T12:44:33.963Z,16.60
2023-02-22T12:47:05.625Z,15.70
2023-02-22T12:49:43.001Z,14.70
2023-02-22T12:52:22.260Z,15.37
2023-02-22T12:55:31.380Z,13.90
2023-02-22T13:04:20.509Z,13.90
2023-02-22T13:30:30.250Z,11.40
2023-02-22T16:30:32.645Z,9.60
2023-02-22T16:33:34.192Z,9.27
2023-02-22T16:36:27.691Z,11.50
2023-02-22T16:39:39.801Z,13.43
2023-02-22T16:42:24.508Z,12.20
2023-02-22T16:45:46.464Z,12.73
2023-02-22T16:48:30.215Z,11.90
2023-02-22T16:51:44.328Z,48.57
2023-02-22T16:54:38.059Z,31.63
2023-02-22T16:57:46.407Z,25.00
2023-02-22T17:00:33.004Z,27.40
2023-02-22T17:03:17.578Z,32.10
2023-02-22T17:06:05.406Z,30.33
2023-02-22T17:09:03.317Z,27.37
2023-02-22T17:12:01.325Z,25.13
2023-02-22T17:14:47.720Z,21.40
2023-02-22T17:17:44.069Z,12.80
2023-02-22T17:29:05.024Z,12.90
2023-02-22T17:32:32.264Z,15.77
2023-02-22T17:40:12.797Z,17.50
2023-02-22T17:45:50.548Z,19.40
2023-02-22T17:48:32.359Z,19.73
2023-02-22T17:51:54.842Z,17.60
2023-02-22T17:55:30.776Z,19.10
2023-02-22T18:01:51.085Z,16.27
2023-02-22T18:05:31.365Z,14.93
2023-02-22T18:08:59.231Z,15.57
2023-02-22T18:12:46.760Z,15.13
2023-02-22T18:19:38.949Z,14.20
2023-02-22T18:22:53.831Z,13.23
2023-02-22T18:26:03.862Z,13.20
2023-02-22T18:28:44.964Z,11.93
2023-02-22T18:31:19.647Z,12.67
2023-02-22T18:33:51.773Z,12.63
2023-02-22T18:36:26.595Z,12.23
2023-02-22T18:39:03.547Z,11.80
2023-02-22T18:41:36.286Z,13.57
2023-02-22T18:44:10.565Z,12.17
2023-02-22T18:46:40.816Z,11.67
2023-02-22T18:49:15.293Z,10.60
2023-02-22T18:51:46.352Z,10.50
2023-02-22T18:54:22.219Z,11.80
2023-02-22T18:56:52.065Z,12.37
2023-02-22T18:59:25.074Z,11.63
2023-02-22T19:01:54.951Z,12.50
2023-02-22T19:04:25.196Z,12.80
2023-02-22T19:06:57.650Z,12.90
2023-02-22T19:09:29.965Z,12.23
2023-02-22T19:11:59.687Z,13.23
2023-02-22T19:14:29.422Z,13.20
2023-02-22T19:17:01.536Z,11.83
2023-02-22T19:19:31.679Z,12.43
2023-02-22T19:22:01.346Z,12.37
2023-02-22T19:24:33.641Z,13.80
2023-02-22T19:27:05.412Z,11.93
2023-02-22T19:29:38.148Z,10.97
2023-02-22T19:32:08.035Z,12.27
2023-02-22T19:34:38.218Z,10.77
2023-02-22T19:37:08.742Z,10.43
2023-02-22T19:39:42.430Z,11.30
2023-02-22T19:42:12.771Z,11.40
2023-02-22T19:44:42.485Z,12.50
2023-02-22T19:47:12.105Z,12.03
2023-02-22T19:49:41.892Z,12.37
2023-02-22T19:52:11.519Z,12.27
2023-02-22T19:54:44.545Z,12.60
2023-02-22T19:57:16.114Z,12.13
2023-02-22T19:59:46.128Z,12.80
2023-02-22T20:02:15.937Z,12.30
2023-02-22T20:04:50.083Z,12.90
2023-02-22T20:07:19.805Z,13.23
2023-02-22T20:09:52.108Z,12.20
2023-02-22T20:12:21.844Z,11.00
2023-02-22T20:14:51.477Z,12.63
2023-02-22T20:17:21.097Z,10.97
2023-02-22T20:19:50.780Z,12.80
2023-02-22T20:22:20.881Z,11.90
2023-02-22T20:24:53.352Z,12.23
2023-02-22T20:27:24.401Z,12.03
2023-02-22T20:29:54.065Z,10.10
2023-02-22T20:32:24.717Z,11.70
2023-02-22T20:34:54.870Z,11.73
2023-02-22T20:37:24.582Z,11.63
2023-02-22T20:39:56.832Z,11.13
2023-02-22T20:42:26.445Z,10.13
2023-02-22T20:45:01.718Z,10.33
2023-02-22T20:47:31.552Z,10.03
2023-02-22T20:50:01.224Z,10.53
2023-02-22T20:52:30.909Z,10.20
2023-02-22T20:55:04.315Z,10.17
2023-02-22T20:57:33.995Z,10.23
2023-02-22T21:00:03.721Z,8.50
2023-02-22T21:02:33.413Z,9.00
2023-02-22T21:05:03.083Z,9.20
2023-02-22T21:07:32.795Z,9.63
2023-02-22T21:10:06.111Z,9.27
2023-02-22T21:12:36.730Z,8.73
2023-02-22T21:15:07.783Z,9.27
2023-02-22T21:17:37.652Z,9.03
2023-02-22T21:20:12.245Z,8.60
2023-02-22T21:22:43.869Z,9.20
2023-02-22T21:25:16.729Z,9.40
2023-02-22T21:27:47.126Z,9.37
2023-02-22T21:30:17.859Z,9.50
2023-02-22T21:32:47.473Z,9.43
2023-02-22T21:35:17.176Z,8.53
2023-02-22T21:37:46.800Z,9.47
2023-02-22T21:40:21.844Z,9.80
2023-02-22T21:42:52.024Z,8.97
2023-02-22T21:45:23.391Z,8.77
2023-02-22T21:47:54.720Z,8.70
2023-02-22T21:50:25.571Z,8.17
2023-02-22T21:52:55.384Z,8.30
2023-02-22T21:55:27.633Z,8.37
2023-02-22T21:57:57.237Z,8.20
2023-02-22T22:00:38.136Z,9.37
2023-02-22T22:03:12.796Z,8.90
2023-02-22T22:05:45.315Z,8.50
2023-02-22T22:08:19.543Z,8.30
2023-02-22T22:10:56.480Z,8.67
2023-02-22T22:13:28.117Z,8.70
2023-02-22T22:15:57.922Z,8.60
2023-02-22T22:18:27.693Z,8.70
2023-02-22T22:20:57.313Z,9.70
2023-02-22T22:23:26.904Z,9.80
2023-02-22T22:26:10.855Z,9.47
2023-02-22T22:28:41.772Z,9.60
2023-02-22T22:31:12.577Z,9.00
2023-02-22T22:33:44.752Z,9.60
2023-02-22T22:36:16.664Z,9.23
2023-02-22T22:38:47.189Z,9.23
2023-02-22T22:41:21.942Z,10.70
2023-02-22T22:43:54.103Z,10.57
2023-02-22T22:46:24.151Z,12.27
2023-02-22T22:48:53.897Z,10.47
2023-02-22T22:51:23.825Z,12.40
2023-02-22T22:53:54.866Z,13.30
2023-02-22T22:56:28.127Z,13.97
2023-02-22T22:58:59.789Z,12.63
2023-02-22T23:01:34.296Z,13.93
2023-02-22T23:04:06.454Z,13.30
2023-02-22T23:06:39.280Z,13.00
2023-02-22T23:09:12.145Z,12.97
2023-02-22T23:11:46.386Z,11.93
2023-02-22T23:14:19.525Z,12.67
2023-02-22T23:16:50.119Z,12.80
2023-02-22T23:19:20.476Z,12.30
2023-02-22T23:21:51.408Z,13.20
2023-02-22T23:24:22.556Z,12.20
2023-02-22T23:26:54.873Z,13.43
2023-02-22T23:29:25.544Z,12.97
2023-02-22T23:31:55.294Z,13.17
2023-02-22T23:34:26.198Z,13.40
2023-02-22T23:36:55.902Z,13.80
2023-02-22T23:39:27.339Z,12.73
2023-02-22T23:42:01.273Z,13.57
2023-02-22T23:44:31.634Z,12.83
2023-02-22T23:47:02.537Z,13.53
2023-02-22T23:49:36.240Z,14.47
2023-02-22T23:52:06.706Z,14.10
2023-02-22T23:54:43.856Z,15.70
2023-02-22T23:57:17.617Z,15.37
2023-02-22T23:59:47.232Z,14.97
